createdAt,value
2023-01-19T00:01:04.618Z,1.70
2023-01-19T00:03:33.711Z,1.60
2023-01-19T00:06:06.963Z,1.50
2023-01-19T00:08:36.016Z,1.40
2023-01-19T00:11:06.632Z,1.40
2023-01-19T00:13:35.409Z,1.30
2023-01-19T00:16:07.411Z,1.30
2023-01-19T00:18:36.252Z,1.30
2023-01-19T00:21:05.385Z,1.20
2023-01-19T00:23:34.132Z,1.20
2023-01-19T00:26:02.937Z,1.10
2023-01-19T00:28:33.054Z,1.10
2023-01-19T00:31:01.961Z,1.10
2023-01-19T00:33:30.655Z,1.10
2023-01-19T00:35:59.384Z,1.10
2023-01-19T00:38:31.118Z,1.20
2023-01-19T00:41:00.018Z,1.20
2023-01-19T00:43:29.329Z,1.20
2023-01-19T00:45:59.524Z,1.20
2023-01-19T00:48:28.575Z,1.20
2023-01-19T00:50:57.511Z,1.20
2023-01-19T00:53:26.529Z,1.30
2023-01-19T00:55:57.892Z,1.20
2023-01-19T00:58:26.764Z,1.20
2023-01-19T01:00:58.022Z,1.20
2023-01-19T01:03:28.427Z,1.10
2023-01-19T01:05:57.420Z,1.10
2023-01-19T01:08:35.556Z,1.00
2023-01-19T01:11:04.417Z,1.00
2023-01-19T01:13:33.711Z,1.00
2023-01-19T01:16:02.964Z,1.00
2023-01-19T01:18:37.485Z,1.00
2023-01-19T01:21:08.075Z,1.00
2023-01-19T01:23:37.072Z,1.10
2023-01-19T01:26:06.242Z,1.10
2023-01-19T01:28:37.875Z,1.10
2023-01-19T01:31:09.651Z,1.20
2023-01-19T01:33:42.026Z,1.20
2023-01-19T01:36:12.262Z,1.30
2023-01-19T01:38:41.098Z,1.40
2023-01-19T01:41:12.635Z,1.40
2023-01-19T01:43:49.795Z,1.50
2023-01-19T01:46:19.986Z,1.50
2023-01-19T01:48:57.237Z,1.50
2023-01-19T01:51:30.346Z,1.50
2023-01-19T01:54:09.624Z,1.50
2023-01-19T01:56:42.676Z,1.50
2023-01-19T01:59:25.952Z,1.50
2023-01-19T02:02:14.924Z,1.60
2023-01-19T02:04:52.007Z,1.50
2023-01-19T02:07:45.085Z,1.50
2023-01-19T02:10:31.044Z,1.50
2023-01-19T02:13:19.716Z,1.50
2023-01-19T02:15:50.191Z,1.50
2023-01-19T02:18:21.333Z,1.40
2023-01-19T02:20:57.782Z,1.40
2023-01-19T02:23:40.079Z,1.40
2023-01-19T02:26:10.973Z,1.50
2023-01-19T02:28:42.732Z,1.40
2023-01-19T02:31:11.694Z,1.40
2023-01-19T02:33:40.559Z,1.40
2023-01-19T02:36:14.679Z,1.40
2023-01-19T02:38:47.061Z,1.30
2023-01-19T02:41:21.367Z,1.20
2023-01-19T02:43:51.228Z,1.10
2023-01-19T02:46:20.770Z,1.10
2023-01-19T02:48:49.878Z,1.00
2023-01-19T02:51:22.329Z,1.00
2023-01-19T02:54:21.419Z,1.00
2023-01-19T02:56:59.604Z,1.00
2023-01-19T02:59:42.018Z,1.00
2023-01-19T03:02:28.143Z,1.00
2023-01-19T03:05:05.951Z,1.00
2023-01-19T03:07:46.028Z,1.10
2023-01-19T03:10:22.800Z,1.10
2023-01-19T03:12:59.449Z,1.10
2023-01-19T03:15:34.267Z,1.10
2023-01-19T03:18:04.380Z,1.10
2023-01-19T03:20:33.810Z,1.20
2023-01-19T03:23:06.181Z,1.20
2023-01-19T03:25:39.172Z,1.20
2023-01-19T03:28:07.947Z,1.20
2023-01-19T03:30:46.826Z,1.20
2023-01-19T03:33:21.843Z,1.30
2023-01-19T03:35:54.180Z,1.30
2023-01-19T03:38:29.190Z,1.30
2023-01-19T03:41:03.396Z,1.30
2023-01-19T03:43:33.995Z,1.30
2023-01-19T03:46:04.439Z,1.30
2023-01-19T03:48:34.187Z,1.40
2023-01-19T03:51:05.715Z,1.40
2023-01-19T03:53:34.540Z,1.40
2023-01-19T03:56:05.048Z,1.40
2023-01-19T03:58:33.831Z,1.40
2023-01-19T04:01:04.289Z,1.50
2023-01-19T04:03:33.066Z,1.50
2023-01-19T04:06:01.928Z,1.50
2023-01-19T04:08:30.648Z,1.50
2023-01-19T04:10:59.869Z,1.50
2023-01-19T04:13:30.638Z,1.60
2023-01-19T04:16:01.567Z,1.60
2023-01-19T04:18:33.706Z,1.60
2023-01-19T04:21:03.316Z,1.60
2023-01-19T04:23:32.591Z,1.60
2023-01-19T04:26:03.022Z,1.70
2023-01-19T04:28:34.947Z,1.70
2023-01-19T04:31:04.204Z,1.60
2023-01-19T04:33:33.659Z,1.70
2023-01-19T04:36:02.489Z,1.80
2023-01-19T04:38:31.297Z,1.80
2023-01-19T04:41:00.117Z,1.90
2023-01-19T04:43:28.984Z,1.90
2023-01-19T04:45:59.332Z,2.00
2023-01-19T04:48:28.241Z,2.10
2023-01-19T04:50:57.282Z,2.10
2023-01-19T04:53:26.179Z,2.10
2023-01-19T04:55:56.082Z,2.10
2023-01-19T04:58:24.839Z,2.20
2023-01-19T05:00:53.613Z,2.20
2023-01-19T05:03:25.676Z,2.20
2023-01-19T05:05:57.127Z,2.20
2023-01-19T05:08:26.022Z,2.10
2023-01-19T05:10:54.733Z,2.00
2023-01-19T05:13:23.363Z,2.00
2023-01-19T05:15:52.140Z,2.00
2023-01-19T05:18:21.241Z,1.90
2023-01-19T05:20:51.502Z,1.90
2023-01-19T05:23:20.291Z,1.90
2023-01-19T05:25:49.060Z,1.90
2023-01-19T05:28:17.981Z,1.90
2023-01-19T05:30:46.755Z,1.90
2023-01-19T05:33:15.390Z,2.00
2023-01-19T05:35:44.299Z,1.90
2023-01-19T05:38:17.047Z,1.90
2023-01-19T05:40:47.865Z,1.90
2023-01-19T05:43:17.077Z,2.00
2023-01-19T05:45:45.802Z,2.00
2023-01-19T05:48:14.702Z,1.90
2023-01-19T05:50:43.440Z,1.90
2023-01-19T05:53:12.263Z,1.90
2023-01-19T05:55:42.595Z,1.90
2023-01-19T05:58:11.301Z,1.90
2023-01-19T06:00:40.022Z,1.80
2023-01-19T06:03:08.803Z,1.80
2023-01-19T06:05:39.591Z,1.80
2023-01-19T06:08:08.411Z,1.70
2023-01-19T06:10:37.185Z,1.70
2023-01-19T06:13:07.354Z,1.70
2023-01-19T06:15:38.218Z,1.80
2023-01-19T06:18:07.212Z,1.80
2023-01-19T06:20:36.572Z,1.80
2023-01-19T06:23:06.441Z,1.80
2023-01-19T06:25:35.420Z,1.90
2023-01-19T06:28:04.210Z,1.90
2023-01-19T06:30:34.543Z,2.10
2023-01-19T06:33:06.170Z,2.10
2023-01-19T06:35:35.957Z,2.10
2023-01-19T06:38:04.760Z,2.00
2023-01-19T06:40:33.734Z,1.90
2023-01-19T06:43:02.917Z,2.00
2023-01-19T06:45:33.278Z,1.90
2023-01-19T06:48:03.179Z,2.00
2023-01-19T06:50:31.991Z,1.90
2023-01-19T06:53:01.175Z,1.80
2023-01-19T06:55:30.311Z,1.80
2023-01-19T06:57:59.600Z,1.80
2023-01-19T07:00:29.072Z,1.80
2023-01-19T07:02:59.523Z,1.90
2023-01-19T07:05:28.663Z,1.90
2023-01-19T07:07:58.278Z,1.80
2023-01-19T07:10:27.130Z,1.80
2023-01-19T07:13:15.992Z,1.80
2023-01-19T07:15:45.751Z,1.90
2023-01-19T07:18:17.893Z,1.80
2023-01-19T07:20:49.478Z,1.80
2023-01-19T07:23:18.373Z,1.80
2023-01-19T07:25:47.515Z,1.80
2023-01-19T07:28:16.635Z,1.80
2023-01-19T07:30:46.396Z,1.80
2023-01-19T07:33:16.588Z,1.70
2023-01-19T07:35:48.326Z,1.70
2023-01-19T07:38:17.703Z,1.70
2023-01-19T07:40:47.716Z,1.70
2023-01-19T07:43:16.855Z,1.70
2023-01-19T07:45:46.052Z,1.70
2023-01-19T07:48:16.505Z,1.70
2023-01-19T07:50:45.388Z,1.90
2023-01-19T07:53:14.074Z,1.90
2023-01-19T07:55:42.818Z,1.90
2023-01-19T07:58:11.738Z,2.00
2023-01-19T08:00:40.627Z,2.00
2023-01-19T08:03:09.971Z,1.90
2023-01-19T08:05:40.097Z,2.00
2023-01-19T08:08:08.899Z,2.00
2023-01-19T08:10:37.611Z,2.00
2023-01-19T08:13:06.422Z,2.00
2023-01-19T08:15:35.393Z,2.10
2023-01-19T08:18:06.931Z,2.10
2023-01-19T08:20:35.749Z,2.10
2023-01-19T08:23:06.287Z,2.20
2023-01-19T08:25:37.142Z,2.20
2023-01-19T08:28:07.421Z,2.30
2023-01-19T08:30:36.430Z,2.30
2023-01-19T08:33:08.044Z,2.20
2023-01-19T08:35:40.834Z,2.20
2023-01-19T08:38:11.776Z,2.20
2023-01-19T08:40:42.725Z,2.30
2023-01-19T08:43:13.496Z,2.30
2023-01-19T08:45:48.290Z,2.30
2023-01-19T08:48:18.747Z,2.40
2023-01-19T08:50:48.311Z,2.40
2023-01-19T08:53:19.273Z,2.40
2023-01-19T08:55:48.431Z,2.40
2023-01-19T08:58:17.500Z,2.40
2023-01-19T09:00:46.308Z,2.50
2023-01-19T09:03:15.182Z,2.50
2023-01-19T09:05:44.177Z,2.50
2023-01-19T09:08:14.896Z,2.50
2023-01-19T09:10:49.897Z,2.40
2023-01-19T09:13:19.955Z,2.30
2023-01-19T09:15:48.795Z,2.30
2023-01-19T09:18:19.068Z,2.10
2023-01-19T09:20:49.665Z,2.10
2023-01-19T09:23:20.581Z,2.10
2023-01-19T09:25:57.031Z,2.00
2023-01-19T09:28:25.833Z,2.10
2023-01-19T09:30:54.937Z,2.10
2023-01-19T09:33:24.689Z,2.10
2023-01-19T09:35:56.664Z,2.20
2023-01-19T09:38:25.993Z,2.10
2023-01-19T09:40:57.352Z,2.20
2023-01-19T09:43:38.462Z,2.30
2023-01-19T09:46:15.354Z,2.30
2023-01-19T09:48:48.000Z,2.40
2023-01-19T09:51:19.709Z,2.50
2023-01-19T09:54:03.576Z,2.50
2023-01-19T09:56:34.294Z,2.60
2023-01-19T09:59:16.294Z,2.60
2023-01-19T10:01:54.416Z,2.70
2023-01-19T10:04:32.478Z,2.70
2023-01-19T10:07:26.436Z,2.80
2023-01-19T10:10:13.962Z,2.80
2023-01-19T10:12:56.445Z,2.90
2023-01-19T10:15:35.660Z,3.10
2023-01-19T10:18:18.313Z,3.10
2023-01-19T10:20:51.352Z,3.30
2023-01-19T10:23:44.343Z,3.30
2023-01-19T10:26:18.347Z,3.30
2023-01-19T10:28:50.955Z,3.40
2023-01-19T10:31:25.280Z,3.50
2023-01-19T10:33:55.346Z,3.50
2023-01-19T10:36:30.243Z,3.40
2023-01-19T10:38:59.738Z,3.60
2023-01-19T10:41:33.268Z,3.80
2023-01-19T10:44:05.532Z,3.90
2023-01-19T10:46:39.694Z,4.00
2023-01-19T10:49:21.648Z,4.20
2023-01-19T10:51:50.971Z,4.30
2023-01-19T10:54:21.066Z,4.40
2023-01-19T10:56:55.907Z,4.40
2023-01-19T10:59:38.194Z,4.50
2023-01-19T11:02:19.623Z,4.50
2023-01-19T11:04:51.265Z,4.50
2023-01-19T11:07:22.778Z,4.60
2023-01-19T11:10:12.074Z,4.60
2023-01-19T11:12:43.049Z,4.70
2023-01-19T11:15:17.672Z,4.90
2023-01-19T11:17:48.677Z,4.90
2023-01-19T11:20:23.858Z,4.90
2023-01-19T11:23:06.576Z,4.90
2023-01-19T11:25:37.488Z,4.90
2023-01-19T11:28:07.049Z,4.90
2023-01-19T11:30:37.415Z,4.90
2023-01-19T11:33:06.796Z,4.90
2023-01-19T11:35:40.121Z,5.00
2023-01-19T11:38:18.131Z,5.00
2023-01-19T11:40:54.285Z,5.00
2023-01-19T11:43:24.638Z,5.10
2023-01-19T11:45:57.251Z,5.20
2023-01-19T11:48:31.698Z,5.20
2023-01-19T11:51:03.601Z,5.30
2023-01-19T11:53:34.819Z,5.50
2023-01-19T11:56:07.884Z,5.60
2023-01-19T11:58:40.789Z,5.70
2023-01-19T12:01:21.093Z,5.70
2023-01-19T12:03:56.553Z,5.80
2023-01-19T12:06:30.757Z,5.80
2023-01-19T12:09:03.839Z,5.80
2023-01-19T12:11:36.424Z,5.80
2023-01-19T12:14:08.267Z,5.90
2023-01-19T12:16:40.396Z,5.90
2023-01-19T12:19:17.426Z,5.90
2023-01-19T12:21:48.151Z,5.90
2023-01-19T12:24:20.804Z,5.70
2023-01-19T12:26:54.549Z,5.80
2023-01-19T12:29:26.044Z,5.60
2023-01-19T12:32:31.315Z,5.70
2023-01-19T12:35:00.156Z,5.80
2023-01-19T12:37:43.381Z,5.90
2023-01-19T12:40:27.132Z,6.00
2023-01-19T12:43:00.768Z,6.10
2023-01-19T12:45:34.710Z,6.20
2023-01-19T12:48:08.904Z,6.20
2023-01-19T12:50:39.384Z,6.20
2023-01-19T12:53:19.259Z,5.90
2023-01-19T12:56:01.168Z,5.60
2023-01-19T12:58:30.428Z,5.50
2023-01-19T13:01:14.982Z,5.40
2023-01-19T13:03:58.501Z,5.40
2023-01-19T13:07:04.786Z,5.50
2023-01-19T13:09:34.247Z,5.50
2023-01-19T13:12:23.300Z,5.50
2023-01-19T13:14:52.575Z,5.50
2023-01-19T13:17:37.398Z,5.70
2023-01-19T13:20:28.562Z,5.60
2023-01-19T13:23:25.764Z,5.40
2023-01-19T13:26:04.723Z,5.30
2023-01-19T13:28:40.303Z,5.30
2023-01-19T13:31:10.110Z,5.30
2023-01-19T13:33:45.647Z,5.30
2023-01-19T13:36:26.577Z,5.40
2023-01-19T13:38:56.752Z,5.80
2023-01-19T13:41:29.595Z,6.00
2023-01-19T13:44:03.184Z,6.10
2023-01-19T13:46:33.625Z,6.10
2023-01-19T13:49:06.518Z,6.10
2023-01-19T13:51:36.725Z,6.20
2023-01-19T13:54:06.245Z,6.20
2023-01-19T13:56:34.992Z,6.20
2023-01-19T13:59:10.346Z,6.20
2023-01-19T14:01:40.859Z,6.10
2023-01-19T14:04:26.135Z,6.00
2023-01-19T14:06:59.005Z,5.90
2023-01-19T14:09:27.801Z,5.80
2023-01-19T14:12:11.824Z,5.80
2023-01-19T14:14:40.724Z,5.70
2023-01-19T14:17:25.850Z,5.80
2023-01-19T14:19:55.846Z,5.90
2023-01-19T14:22:42.012Z,5.90
2023-01-19T14:25:33.361Z,5.90
2023-01-19T14:28:30.423Z,5.90
2023-01-19T14:31:01.906Z,5.90
2023-01-19T14:33:43.791Z,5.80
2023-01-19T14:36:27.368Z,5.90
2023-01-19T14:39:00.152Z,5.80
2023-01-19T14:41:37.200Z,5.80
2023-01-19T14:44:10.225Z,5.70
2023-01-19T14:46:39.603Z,5.50
2023-01-19T14:49:09.782Z,5.50
2023-01-19T14:51:38.581Z,5.60
2023-01-19T14:54:18.888Z,5.60
2023-01-19T14:56:47.976Z,5.60
2023-01-19T14:59:16.614Z,5.60
2023-01-19T15:01:45.512Z,5.50
2023-01-19T15:04:14.224Z,5.50
2023-01-19T15:06:45.981Z,5.40
2023-01-19T15:09:17.224Z,5.20
2023-01-19T15:11:50.030Z,5.00
2023-01-19T15:14:20.476Z,4.90
2023-01-19T15:16:50.173Z,4.80
2023-01-19T15:19:19.669Z,4.60
2023-01-19T15:21:48.339Z,4.50
2023-01-19T15:24:18.593Z,4.30
2023-01-19T15:26:47.432Z,4.30
2023-01-19T15:29:21.672Z,4.20
2023-01-19T15:31:50.640Z,4.00
2023-01-19T15:34:19.421Z,3.90
2023-01-19T15:36:48.213Z,3.80
2023-01-19T15:39:18.203Z,3.80
2023-01-19T15:41:46.864Z,3.60
2023-01-19T15:44:15.487Z,3.60
2023-01-19T15:46:44.211Z,3.50
2023-01-19T15:49:12.861Z,3.50
2023-01-19T15:51:41.473Z,3.40
2023-01-19T15:54:13.610Z,3.30
2023-01-19T15:56:43.659Z,3.10
2023-01-19T15:59:12.354Z,3.00
2023-01-19T16:01:41.735Z,3.00
2023-01-19T16:04:12.205Z,2.80
2023-01-19T16:06:41.035Z,2.70
2023-01-19T16:09:09.710Z,2.70
2023-01-19T16:11:38.985Z,2.60
2023-01-19T16:14:09.414Z,2.50
2023-01-19T16:16:38.443Z,2.40
2023-01-19T16:19:07.194Z,2.40
2023-01-19T16:21:36.025Z,2.40
2023-01-19T16:24:04.911Z,2.40
2023-01-19T16:26:36.742Z,2.30
2023-01-19T16:29:08.773Z,2.30
2023-01-19T16:31:39.711Z,2.20
2023-01-19T16:34:08.849Z,2.20
2023-01-19T16:36:40.438Z,2.10
2023-01-19T16:39:11.972Z,2.10
2023-01-19T16:41:40.841Z,2.10
2023-01-19T16:44:10.853Z,2.00
2023-01-19T16:46:43.272Z,2.00
2023-01-19T16:49:15.041Z,2.00
2023-01-19T16:51:44.805Z,1.90
2023-01-19T16:54:15.240Z,1.90
2023-01-19T16:56:44.015Z,1.80
2023-01-19T16:59:14.663Z,1.90
2023-01-19T17:01:45.860Z,1.90
2023-01-19T17:04:15.144Z,1.80
2023-01-19T17:06:43.871Z,1.70
2023-01-19T17:09:12.670Z,1.60
2023-01-19T17:11:41.729Z,1.60
2023-01-19T17:14:13.731Z,1.50
2023-01-19T17:16:43.045Z,1.50
2023-01-19T17:19:16.485Z,1.30
2023-01-19T17:21:47.233Z,1.20
2023-01-19T17:24:16.306Z,1.20
2023-01-19T17:26:48.718Z,1.10
2023-01-19T17:29:18.006Z,1.10
2023-01-19T17:31:46.957Z,1.00
2023-01-19T17:34:17.097Z,1.00
2023-01-19T17:36:45.824Z,0.90
2023-01-19T17:39:16.998Z,0.90
2023-01-19T17:41:45.738Z,0.80
2023-01-19T17:44:14.561Z,0.70
2023-01-19T17:46:43.242Z,0.60
2023-01-19T17:49:12.489Z,0.60
2023-01-19T17:51:42.615Z,0.50
2023-01-19T17:54:12.693Z,0.40
2023-01-19T17:56:41.742Z,0.40
2023-01-19T17:59:10.683Z,0.40
2023-01-19T18:01:40.541Z,0.40
2023-01-19T18:04:10.396Z,0.40
2023-01-19T18:06:40.521Z,0.50
2023-01-19T18:09:10.705Z,0.50
2023-01-19T18:11:39.465Z,0.60
2023-01-19T18:14:08.396Z,0.60
2023-01-19T18:16:37.204Z,0.70
2023-01-19T18:19:05.999Z,0.70
2023-01-19T18:21:34.877Z,0.70
2023-01-19T18:24:05.885Z,0.70
2023-01-19T18:26:37.678Z,0.70
2023-01-19T18:29:06.834Z,0.70
2023-01-19T18:31:35.917Z,0.60
2023-01-19T18:34:04.971Z,0.60
2023-01-19T18:36:34.323Z,0.60
2023-01-19T18:39:03.127Z,0.50
2023-01-19T18:41:32.168Z,0.50
2023-01-19T18:44:02.281Z,0.60
2023-01-19T18:46:31.162Z,0.60
2023-01-19T18:48:59.942Z,0.70
2023-01-19T18:51:31.818Z,0.70
2023-01-19T18:54:01.071Z,0.70
2023-01-19T18:56:30.103Z,0.60
2023-01-19T18:58:59.067Z,0.60
2023-01-19T19:01:33.136Z,0.60
2023-01-19T19:04:02.407Z,0.70
2023-01-19T19:06:31.211Z,0.60
2023-01-19T19:09:00.414Z,0.60
2023-01-19T19:11:29.433Z,0.60
2023-01-19T19:14:00.079Z,0.60
2023-01-19T19:16:45.323Z,0.60
2023-01-19T19:19:15.454Z,0.60
2023-01-19T19:21:44.691Z,0.50
2023-01-19T19:24:13.547Z,0.50
2023-01-19T19:26:42.847Z,0.40
2023-01-19T19:29:11.997Z,0.40
2023-01-19T19:31:42.475Z,0.40
2023-01-19T19:34:12.731Z,0.50
2023-01-19T19:36:42.177Z,0.50
2023-01-19T19:39:10.945Z,0.50
2023-01-19T19:41:39.881Z,0.50
2023-01-19T19:44:12.671Z,0.50
2023-01-19T19:46:42.257Z,0.60
2023-01-19T19:49:12.431Z,0.60
2023-01-19T19:51:42.048Z,0.60
2023-01-19T19:54:10.813Z,0.60
2023-01-19T19:56:39.575Z,0.60
2023-01-19T19:59:08.586Z,0.60
2023-01-19T20:01:37.483Z,0.50
2023-01-19T20:04:10.123Z,0.50
2023-01-19T20:06:42.019Z,0.60
2023-01-19T20:09:12.817Z,0.60
2023-01-19T20:11:42.061Z,0.60
2023-01-19T20:14:12.810Z,0.70
2023-01-19T20:16:41.874Z,0.70
2023-01-19T20:19:10.852Z,0.70
2023-01-19T20:21:42.996Z,0.70
2023-01-19T20:24:18.241Z,0.70
2023-01-19T20:26:52.255Z,0.70
2023-01-19T20:29:22.115Z,0.70
2023-01-19T20:32:00.019Z,0.80
2023-01-19T20:34:33.031Z,0.80
2023-01-19T20:37:04.986Z,0.80
2023-01-19T20:39:35.404Z,0.80
2023-01-19T20:42:05.144Z,0.80
2023-01-19T20:44:33.962Z,0.80
2023-01-19T20:47:03.805Z,0.90
2023-01-19T20:49:33.702Z,0.90
2023-01-19T20:52:04.539Z,0.90
2023-01-19T20:54:33.325Z,0.90
2023-01-19T20:57:02.114Z,0.90
2023-01-19T20:59:30.904Z,1.00
2023-01-19T21:01:59.795Z,1.00
2023-01-19T21:04:32.140Z,1.00
2023-01-19T21:07:01.062Z,1.00
2023-01-19T21:09:31.221Z,1.00
2023-01-19T21:12:00.118Z,1.00
2023-01-19T21:14:31.620Z,1.10
2023-01-19T21:17:00.344Z,1.10
2023-01-19T21:19:29.331Z,1.10
2023-01-19T21:21:58.120Z,1.10
2023-01-19T21:24:27.042Z,1.10
2023-01-19T21:26:57.300Z,1.10
2023-01-19T21:29:26.166Z,1.10
2023-01-19T21:31:55.067Z,1.10
2023-01-19T21:34:23.924Z,1.10
2023-01-19T21:36:53.026Z,1.10
2023-01-19T21:39:21.954Z,1.10
2023-01-19T21:41:50.802Z,1.00
2023-01-19T21:44:21.778Z,1.00
2023-01-19T21:46:50.650Z,0.90
2023-01-19T21:49:21.619Z,0.80
2023-01-19T21:51:51.726Z,0.80
2023-01-19T21:54:20.899Z,0.70
2023-01-19T21:56:49.820Z,0.80
2023-01-19T21:59:20.497Z,0.70
2023-01-19T22:01:49.460Z,0.70
2023-01-19T22:04:18.409Z,0.70
2023-01-19T22:06:47.438Z,0.70
2023-01-19T22:09:16.351Z,0.60
2023-01-19T22:11:45.109Z,0.60
2023-01-19T22:14:13.919Z,0.60
2023-01-19T22:16:44.166Z,0.60
2023-01-19T22:19:14.593Z,0.60
2023-01-19T22:21:43.507Z,0.50
2023-01-19T22:24:12.958Z,0.50
2023-01-19T22:26:41.820Z,0.40
2023-01-19T22:29:12.104Z,0.40
2023-01-19T22:31:41.624Z,0.40
2023-01-19T22:34:11.948Z,0.40
2023-01-19T22:36:40.864Z,0.40
2023-01-19T22:39:11.190Z,0.50
2023-01-19T22:41:42.082Z,0.60
2023-01-19T22:44:13.243Z,0.70
2023-01-19T22:46:42.181Z,0.70
2023-01-19T22:49:15.457Z,0.70
2023-01-19T22:51:44.642Z,0.70
2023-01-19T22:54:13.945Z,0.60
2023-01-19T22:56:43.480Z,0.70
2023-01-19T22:59:12.436Z,0.80
2023-01-19T23:01:43.114Z,0.70
2023-01-19T23:04:15.649Z,0.80
2023-01-19T23:06:47.115Z,0.80
2023-01-19T23:09:16.581Z,0.90
2023-01-19T23:11:50.324Z,0.90
2023-01-19T23:14:23.735Z,0.90
2023-01-19T23:16:53.235Z,0.90
2023-01-19T23:19:23.514Z,0.90
2023-01-19T23:21:53.171Z,0.90
2023-01-19T23:24:21.957Z,0.90
2023-01-19T23:26:51.427Z,0.90
2023-01-19T23:29:20.932Z,0.90
2023-01-19T23:31:53.409Z,0.90
2023-01-19T23:34:23.650Z,0.90
2023-01-19T23:36:55.576Z,0.90
2023-01-19T23:39:25.837Z,0.90
2023-01-19T23:41:54.818Z,1.00
2023-01-19T23:44:23.641Z,0.90
2023-01-19T23:46:52.467Z,1.00
2023-01-19T23:49:21.252Z,1.00
2023-01-19T23:51:51.470Z,0.90
2023-01-19T23:54:20.428Z,0.90
2023-01-19T23:56:51.856Z,0.90
2023-01-19T23:59:20.535Z,0.90
